Terminal Aerodrome Forecast
Issued by NWS

Home | Current Version | Previous Version | Text Only | Print | Product List | Glossary On
Versions: 1 2 3 4 5 6 7 8 9 10 11 12 13 14 15 16 17
657
FTUS43 KDTX 141720
TAFDET
TAF
KDET 141720Z 1418/1518 14008KT P6SM BKN025 BKN035
     FM141900 14008KT P6SM SCT035 BKN250
      TEMPO 1419/1421 BKN035 BKN250
     FM142300 12008KT P6SM SCT080 OVC150
     FM150500 13009KT 4SM -SN BKN028 BKN040 OVC060
      TEMPO 1508/1511 1 1/2SM -SN BKN012 OVC028
     FM151100 16010KT 5SM -SN BKN015 OVC050
     FM151600 20009KT P6SM BKN022 OVC045=

USA.gov is the U.S. government's official web portal to all federal, state and local government web resources and services.